sensor_id;sensor_type;location;lat;lon;timestamp;temperature;humidity
21832;DHT22;11078;49.872;6.188;2022-09-12T00:02:21;13.30;23.90
21832;DHT22;11078;49.872;6.188;2022-09-12T00:04:47;13.30;24.20
21832;DHT22;11078;49.872;6.188;2022-09-12T00:07:14;13.30;24.30
21832;DHT22;11078;49.872;6.188;2022-09-12T00:09:39;13.30;24.50
21832;DHT22;11078;49.872;6.188;2022-09-12T00:12:06;13.30;24.60
21832;DHT22;11078;49.872;6.188;2022-09-12T00:14:32;13.20;24.70
21832;DHT22;11078;49.872;6.188;2022-09-12T00:16:59;13.20;24.90
21832;DHT22;11078;49.872;6.188;2022-09-12T00:19:26;13.20;24.90
21832;DHT22;11078;49.872;6.188;2022-09-12T00:21:53;13.20;24.80
21832;DHT22;11078;49.872;6.188;2022-09-12T00:24:20;13.20;24.10
21832;DHT22;11078;49.872;6.188;2022-09-12T00:26:46;13.20;24.30
21832;DHT22;11078;49.872;6.188;2022-09-12T00:29:20;13.10;24.10
21832;DHT22;11078;49.872;6.188;2022-09-12T00:31:46;13.20;25.70
21832;DHT22;11078;49.872;6.188;2022-09-12T00:34:13;13.20;24.90
21832;DHT22;11078;49.872;6.188;2022-09-12T00:36:39;13.20;24.20
21832;DHT22;11078;49.872;6.188;2022-09-12T00:39:05;13.30;24.70
21832;DHT22;11078;49.872;6.188;2022-09-12T00:41:35;13.30;24.50
21832;DHT22;11078;49.872;6.188;2022-09-12T00:47:00;13.40;24.60
21832;DHT22;11078;49.872;6.188;2022-09-12T00:49:35;13.40;26.20
21832;DHT22;11078;49.872;6.188;2022-09-12T00:52:09;13.40;24.90
21832;DHT22;11078;49.872;6.188;2022-09-12T00:54:48;13.50;25.40
21832;DHT22;11078;49.872;6.188;2022-09-12T00:57:15;13.50;25.00
21832;DHT22;11078;49.872;6.188;2022-09-12T00:59:47;13.50;24.60
21832;DHT22;11078;49.872;6.188;2022-09-12T01:02:14;13.50;24.70
21832;DHT22;11078;49.872;6.188;2022-09-12T01:04:40;13.50;24.20
21832;DHT22;11078;49.872;6.188;2022-09-12T01:07:08;13.60;24.50
21832;DHT22;11078;49.872;6.188;2022-09-12T01:09:35;13.60;24.40
21832;DHT22;11078;49.872;6.188;2022-09-12T01:12:03;13.60;24.00
21832;DHT22;11078;49.872;6.188;2022-09-12T01:14:29;13.60;24.50
21832;DHT22;11078;49.872;6.188;2022-09-12T01:16:56;13.50;24.80
21832;DHT22;11078;49.872;6.188;2022-09-12T01:22:43;13.50;25.70
21832;DHT22;11078;49.872;6.188;2022-09-12T01:25:29;13.50;25.50
21832;DHT22;11078;49.872;6.188;2022-09-12T01:28:34;13.50;25.40
21832;DHT22;11078;49.872;6.188;2022-09-12T01:31:11;13.50;25.00
21832;DHT22;11078;49.872;6.188;2022-09-12T01:33:59;13.50;24.40
21832;DHT22;11078;49.872;6.188;2022-09-12T01:36:35;13.50;25.00
21832;DHT22;11078;49.872;6.188;2022-09-12T01:39:15;13.50;24.40
21832;DHT22;11078;49.872;6.188;2022-09-12T01:41:55;13.50;25.00
21832;DHT22;11078;49.872;6.188;2022-09-12T01:44:45;13.50;25.00
21832;DHT22;11078;49.872;6.188;2022-09-12T01:47:32;13.60;24.70
21832;DHT22;11078;49.872;6.188;2022-09-12T01:50:07;13.60;26.20
21832;DHT22;11078;49.872;6.188;2022-09-12T01:52:45;13.60;25.00
21832;DHT22;11078;49.872;6.188;2022-09-12T01:55:18;13.60;24.40
21832;DHT22;11078;49.872;6.188;2022-09-12T01:57:59;13.60;24.90
21832;DHT22;11078;49.872;6.188;2022-09-12T02:00:28;13.60;24.30
21832;DHT22;11078;49.872;6.188;2022-09-12T02:03:08;13.60;24.90
21832;DHT22;11078;49.872;6.188;2022-09-12T02:05:49;13.60;24.70
21832;DHT22;11078;49.872;6.188;2022-09-12T02:08:21;13.60;25.20
21832;DHT22;11078;49.872;6.188;2022-09-12T02:10:55;13.60;24.50
21832;DHT22;11078;49.872;6.188;2022-09-12T02:13:36;13.60;24.80
21832;DHT22;11078;49.872;6.188;2022-09-12T02:16:09;13.60;25.20
21832;DHT22;11078;49.872;6.188;2022-09-12T02:18:39;13.60;25.00
21832;DHT22;11078;49.872;6.188;2022-09-12T02:21:06;13.60;25.60
21832;DHT22;11078;49.872;6.188;2022-09-12T02:23:35;13.60;25.00
21832;DHT22;11078;49.872;6.188;2022-09-12T02:26:09;13.60;25.00
21832;DHT22;11078;49.872;6.188;2022-09-12T02:28:41;13.60;25.80
21832;DHT22;11078;49.872;6.188;2022-09-12T02:31:27;13.60;26.00
21832;DHT22;11078;49.872;6.188;2022-09-12T02:34:15;13.60;26.10
21832;DHT22;11078;49.872;6.188;2022-09-12T02:37:06;13.60;26.10
21832;DHT22;11078;49.872;6.188;2022-09-12T02:39:37;13.60;26.90
21832;DHT22;11078;49.872;6.188;2022-09-12T02:42:03;13.60;25.50
21832;DHT22;11078;49.872;6.188;2022-09-12T02:44:31;13.60;25.30
21832;DHT22;11078;49.872;6.188;2022-09-12T02:47:17;13.60;25.00
21832;DHT22;11078;49.872;6.188;2022-09-12T02:49:44;13.60;25.80
21832;DHT22;11078;49.872;6.188;2022-09-12T02:52:11;13.50;24.40
21832;DHT22;11078;49.872;6.188;2022-09-12T02:54:37;13.60;25.40
21832;DHT22;11078;49.872;6.188;2022-09-12T02:57:14;13.50;25.10
21832;DHT22;11078;49.872;6.188;2022-09-12T02:59:40;13.60;24.80
21832;DHT22;11078;49.872;6.188;2022-09-12T03:05:15;13.60;26.70
21832;DHT22;11078;49.872;6.188;2022-09-12T03:16:52;13.60;26.20
21832;DHT22;11078;49.872;6.188;2022-09-12T03:19:36;13.60;26.60
21832;DHT22;11078;49.872;6.188;2022-09-12T03:22:21;13.60;25.80
21832;DHT22;11078;49.872;6.188;2022-09-12T03:27:55;13.60;25.60
21832;DHT22;11078;49.872;6.188;2022-09-12T03:30:23;13.60;25.50
21832;DHT22;11078;49.872;6.188;2022-09-12T03:32:52;13.60;25.20
21832;DHT22;11078;49.872;6.188;2022-09-12T03:35:20;13.50;25.80
21832;DHT22;11078;49.872;6.188;2022-09-12T03:37:48;13.50;26.00
21832;DHT22;11078;49.872;6.188;2022-09-12T03:40:14;13.40;27.20
21832;DHT22;11078;49.872;6.188;2022-09-12T03:42:40;13.50;26.10
21832;DHT22;11078;49.872;6.188;2022-09-12T03:45:08;13.50;26.10
21832;DHT22;11078;49.872;6.188;2022-09-12T03:47:34;13.40;25.60
21832;DHT22;11078;49.872;6.188;2022-09-12T03:50:01;13.40;25.90
21832;DHT22;11078;49.872;6.188;2022-09-12T03:52:27;13.40;25.70
21832;DHT22;11078;49.872;6.188;2022-09-12T03:54:53;13.40;25.70
21832;DHT22;11078;49.872;6.188;2022-09-12T03:57:19;13.40;25.60
21832;DHT22;11078;49.872;6.188;2022-09-12T03:59:45;13.40;25.90
21832;DHT22;11078;49.872;6.188;2022-09-12T04:02:12;13.30;25.40
21832;DHT22;11078;49.872;6.188;2022-09-12T04:04:40;13.30;25.60
21832;DHT22;11078;49.872;6.188;2022-09-12T04:07:08;13.30;25.90
21832;DHT22;11078;49.872;6.188;2022-09-12T04:09:34;13.30;26.40
21832;DHT22;11078;49.872;6.188;2022-09-12T04:12:01;13.30;26.20
21832;DHT22;11078;49.872;6.188;2022-09-12T04:14:26;13.30;26.00
21832;DHT22;11078;49.872;6.188;2022-09-12T04:16:52;13.30;26.00
21832;DHT22;11078;49.872;6.188;2022-09-12T04:19:18;13.30;26.00
21832;DHT22;11078;49.872;6.188;2022-09-12T04:21:44;13.30;26.40
21832;DHT22;11078;49.872;6.188;2022-09-12T04:24:10;13.30;26.20
21832;DHT22;11078;49.872;6.188;2022-09-12T04:26:37;13.30;25.80
21832;DHT22;11078;49.872;6.188;2022-09-12T04:29:03;13.30;26.80
21832;DHT22;11078;49.872;6.188;2022-09-12T04:31:29;13.30;26.00
21832;DHT22;11078;49.872;6.188;2022-09-12T04:33:58;13.30;26.80
21832;DHT22;11078;49.872;6.188;2022-09-12T04:36:25;13.20;25.80
21832;DHT22;11078;49.872;6.188;2022-09-12T04:38:52;13.20;25.50
21832;DHT22;11078;49.872;6.188;2022-09-12T04:41:20;13.30;26.60
21832;DHT22;11078;49.872;6.188;2022-09-12T04:43:50;13.30;25.80
21832;DHT22;11078;49.872;6.188;2022-09-12T04:46:16;13.30;26.60
21832;DHT22;11078;49.872;6.188;2022-09-12T04:48:45;13.30;25.80
21832;DHT22;11078;49.872;6.188;2022-09-12T04:51:15;13.30;25.80
21832;DHT22;11078;49.872;6.188;2022-09-12T04:53:42;13.30;25.00
21832;DHT22;11078;49.872;6.188;2022-09-12T04:56:10;13.20;26.20
21832;DHT22;11078;49.872;6.188;2022-09-12T04:58:37;13.20;25.70
21832;DHT22;11078;49.872;6.188;2022-09-12T05:01:05;13.30;25.70
21832;DHT22;11078;49.872;6.188;2022-09-12T05:03:31;13.20;25.80
21832;DHT22;11078;49.872;6.188;2022-09-12T05:05:58;13.30;25.60
21832;DHT22;11078;49.872;6.188;2022-09-12T05:08:24;13.30;25.90
21832;DHT22;11078;49.872;6.188;2022-09-12T05:10:50;13.30;25.80
21832;DHT22;11078;49.872;6.188;2022-09-12T05:13:16;13.30;25.60
21832;DHT22;11078;49.872;6.188;2022-09-12T05:15:42;13.30;25.50
21832;DHT22;11078;49.872;6.188;2022-09-12T05:18:09;13.30;25.70
21832;DHT22;11078;49.872;6.188;2022-09-12T05:20:35;13.30;25.10
21832;DHT22;11078;49.872;6.188;2022-09-12T05:23:00;13.30;25.10
21832;DHT22;11078;49.872;6.188;2022-09-12T05:25:26;13.30;25.10
21832;DHT22;11078;49.872;6.188;2022-09-12T05:27:52;13.30;25.00
21832;DHT22;11078;49.872;6.188;2022-09-12T05:30:18;13.30;25.10
21832;DHT22;11078;49.872;6.188;2022-09-12T05:32:44;13.30;25.10
21832;DHT22;11078;49.872;6.188;2022-09-12T05:35:10;13.30;25.50
21832;DHT22;11078;49.872;6.188;2022-09-12T05:37:36;13.30;25.70
21832;DHT22;11078;49.872;6.188;2022-09-12T05:40:03;13.30;26.50
21832;DHT22;11078;49.872;6.188;2022-09-12T05:42:35;13.30;25.60
21832;DHT22;11078;49.872;6.188;2022-09-12T05:45:01;13.30;25.10
21832;DHT22;11078;49.872;6.188;2022-09-12T05:47:30;13.40;25.50
21832;DHT22;11078;49.872;6.188;2022-09-12T05:49:59;13.30;25.60
21832;DHT22;11078;49.872;6.188;2022-09-12T05:52:25;13.30;25.60
21832;DHT22;11078;49.872;6.188;2022-09-12T05:54:51;13.40;26.00
21832;DHT22;11078;49.872;6.188;2022-09-12T05:57:17;13.40;26.60
21832;DHT22;11078;49.872;6.188;2022-09-12T05:59:43;13.40;25.70
21832;DHT22;11078;49.872;6.188;2022-09-12T06:02:11;13.40;26.40
21832;DHT22;11078;49.872;6.188;2022-09-12T06:04:38;13.40;26.70
21832;DHT22;11078;49.872;6.188;2022-09-12T06:07:05;13.40;26.60
21832;DHT22;11078;49.872;6.188;2022-09-12T06:09:34;13.50;26.80
21832;DHT22;11078;49.872;6.188;2022-09-12T06:12:00;13.50;26.00
21832;DHT22;11078;49.872;6.188;2022-09-12T06:14:32;13.50;25.80
21832;DHT22;11078;49.872;6.188;2022-09-12T06:17:00;13.50;25.60
21832;DHT22;11078;49.872;6.188;2022-09-12T06:19:26;13.50;25.40
21832;DHT22;11078;49.872;6.188;2022-09-12T06:21:53;13.50;25.20
21832;DHT22;11078;49.872;6.188;2022-09-12T06:24:20;13.60;25.70
21832;DHT22;11078;49.872;6.188;2022-09-12T06:26:47;13.60;25.50
21832;DHT22;11078;49.872;6.188;2022-09-12T06:29:16;13.70;25.50
21832;DHT22;11078;49.872;6.188;2022-09-12T06:31:44;13.80;25.10
21832;DHT22;11078;49.872;6.188;2022-09-12T06:34:12;13.80;25.40
21832;DHT22;11078;49.872;6.188;2022-09-12T06:36:49;13.90;25.20
21832;DHT22;11078;49.872;6.188;2022-09-12T06:39:18;13.90;25.60
21832;DHT22;11078;49.872;6.188;2022-09-12T06:41:50;13.90;25.50
21832;DHT22;11078;49.872;6.188;2022-09-12T06:44:20;14.00;25.40
21832;DHT22;11078;49.872;6.188;2022-09-12T06:46:47;14.10;26.10
21832;DHT22;11078;49.872;6.188;2022-09-12T06:49:13;14.20;26.50
21832;DHT22;11078;49.872;6.188;2022-09-12T06:51:40;14.20;25.70
21832;DHT22;11078;49.872;6.188;2022-09-12T06:54:12;14.30;25.20
21832;DHT22;11078;49.872;6.188;2022-09-12T06:56:46;14.30;26.20
21832;DHT22;11078;49.872;6.188;2022-09-12T06:59:12;14.40;25.90
21832;DHT22;11078;49.872;6.188;2022-09-12T07:01:38;14.50;25.80
21832;DHT22;11078;49.872;6.188;2022-09-12T07:04:05;14.50;25.70
21832;DHT22;11078;49.872;6.188;2022-09-12T07:06:39;14.50;25.60
21832;DHT22;11078;49.872;6.188;2022-09-12T07:09:08;14.50;25.70
21832;DHT22;11078;49.872;6.188;2022-09-12T07:11:36;14.60;25.70
21832;DHT22;11078;49.872;6.188;2022-09-12T07:14:05;14.60;25.10
21832;DHT22;11078;49.872;6.188;2022-09-12T07:16:33;14.60;24.40
21832;DHT22;11078;49.872;6.188;2022-09-12T07:19:01;14.60;24.40
21832;DHT22;11078;49.872;6.188;2022-09-12T07:21:28;14.70;25.50
21832;DHT22;11078;49.872;6.188;2022-09-12T07:23:54;14.80;24.40
21832;DHT22;11078;49.872;6.188;2022-09-12T07:26:23;14.80;24.90
21832;DHT22;11078;49.872;6.188;2022-09-12T07:28:51;15.00;24.90
21832;DHT22;11078;49.872;6.188;2022-09-12T07:31:19;15.10;25.40
21832;DHT22;11078;49.872;6.188;2022-09-12T07:33:46;15.30;24.20
21832;DHT22;11078;49.872;6.188;2022-09-12T07:36:14;15.40;24.40
21832;DHT22;11078;49.872;6.188;2022-09-12T07:38:41;15.50;24.10
21832;DHT22;11078;49.872;6.188;2022-09-12T07:41:11;15.60;24.20
21832;DHT22;11078;49.872;6.188;2022-09-12T07:43:38;15.60;24.30
21832;DHT22;11078;49.872;6.188;2022-09-12T07:46:04;15.70;24.00
21832;DHT22;11078;49.872;6.188;2022-09-12T07:48:31;15.90;24.10
21832;DHT22;11078;49.872;6.188;2022-09-12T07:51:00;16.00;23.80
21832;DHT22;11078;49.872;6.188;2022-09-12T07:53:30;16.10;23.80
21832;DHT22;11078;49.872;6.188;2022-09-12T07:55:57;16.10;23.50
21832;DHT22;11078;49.872;6.188;2022-09-12T07:58:23;16.00;23.60
21832;DHT22;11078;49.872;6.188;2022-09-12T08:00:49;16.10;23.80
21832;DHT22;11078;49.872;6.188;2022-09-12T08:03:16;16.30;23.30
21832;DHT22;11078;49.872;6.188;2022-09-12T08:05:42;16.40;22.90
21832;DHT22;11078;49.872;6.188;2022-09-12T08:08:08;16.50;23.30
21832;DHT22;11078;49.872;6.188;2022-09-12T08:10:35;16.60;23.70
21832;DHT22;11078;49.872;6.188;2022-09-12T08:13:01;16.60;22.70
21832;DHT22;11078;49.872;6.188;2022-09-12T08:15:28;16.60;23.70
21832;DHT22;11078;49.872;6.188;2022-09-12T08:17:55;16.60;23.40
21832;DHT22;11078;49.872;6.188;2022-09-12T08:20:21;16.70;23.30
21832;DHT22;11078;49.872;6.188;2022-09-12T08:22:47;16.70;23.40
21832;DHT22;11078;49.872;6.188;2022-09-12T08:25:14;16.80;23.00
21832;DHT22;11078;49.872;6.188;2022-09-12T08:27:41;16.90;24.10
21832;DHT22;11078;49.872;6.188;2022-09-12T08:30:08;17.00;23.30
21832;DHT22;11078;49.872;6.188;2022-09-12T08:32:34;17.10;23.60
21832;DHT22;11078;49.872;6.188;2022-09-12T08:35:00;17.10;24.10
21832;DHT22;11078;49.872;6.188;2022-09-12T08:37:29;17.20;23.50
21832;DHT22;11078;49.872;6.188;2022-09-12T08:39:55;17.30;23.70
21832;DHT22;11078;49.872;6.188;2022-09-12T08:42:41;17.50;24.60
21832;DHT22;11078;49.872;6.188;2022-09-12T08:45:17;17.80;23.40
21832;DHT22;11078;49.872;6.188;2022-09-12T08:47:46;18.00;22.60
21832;DHT22;11078;49.872;6.188;2022-09-12T08:50:16;18.10;22.70
21832;DHT22;11078;49.872;6.188;2022-09-12T08:55:34;18.50;23.70
21832;DHT22;11078;49.872;6.188;2022-09-12T09:01:03;19.00;22.70
21832;DHT22;11078;49.872;6.188;2022-09-12T09:03:48;19.20;21.70
21832;DHT22;11078;49.872;6.188;2022-09-12T09:06:34;19.50;22.00
21832;DHT22;11078;49.872;6.188;2022-09-12T09:09:11;19.60;20.40
21832;DHT22;11078;49.872;6.188;2022-09-12T09:11:51;19.80;21.40
21832;DHT22;11078;49.872;6.188;2022-09-12T09:14:34;19.90;20.70
21832;DHT22;11078;49.872;6.188;2022-09-12T09:17:33;20.10;20.90
21832;DHT22;11078;49.872;6.188;2022-09-12T09:22:53;20.40;20.70
21832;DHT22;11078;49.872;6.188;2022-09-12T09:28:30;20.90;20.00
21832;DHT22;11078;49.872;6.188;2022-09-12T09:30:58;21.10;19.70
21832;DHT22;11078;49.872;6.188;2022-09-12T09:33:28;21.30;19.80
21832;DHT22;11078;49.872;6.188;2022-09-12T09:38:47;21.90;18.30
21832;DHT22;11078;49.872;6.188;2022-09-12T09:41:26;22.20;17.70
21832;DHT22;11078;49.872;6.188;2022-09-12T09:43:56;22.50;17.50
21832;DHT22;11078;49.872;6.188;2022-09-12T09:46:23;22.70;18.10
21832;DHT22;11078;49.872;6.188;2022-09-12T09:48:49;22.90;18.50
21832;DHT22;11078;49.872;6.188;2022-09-12T09:51:20;23.10;18.40
21832;DHT22;11078;49.872;6.188;2022-09-12T09:53:57;23.40;17.10
21832;DHT22;11078;49.872;6.188;2022-09-12T09:56:31;23.70;15.70
21832;DHT22;11078;49.872;6.188;2022-09-12T09:59:09;23.90;16.40
21832;DHT22;11078;49.872;6.188;2022-09-12T10:01:42;24.20;15.30
21832;DHT22;11078;49.872;6.188;2022-09-12T10:04:18;24.30;16.10
21832;DHT22;11078;49.872;6.188;2022-09-12T10:06:44;24.30;14.20
21832;DHT22;11078;49.872;6.188;2022-09-12T10:09:19;24.50;15.70
21832;DHT22;11078;49.872;6.188;2022-09-12T10:11:46;24.70;14.30
21832;DHT22;11078;49.872;6.188;2022-09-12T10:14:36;24.90;15.30
21832;DHT22;11078;49.872;6.188;2022-09-12T10:17:23;25.20;11.20
21832;DHT22;11078;49.872;6.188;2022-09-12T10:19:49;25.30;10.10
21832;DHT22;11078;49.872;6.188;2022-09-12T10:22:19;25.40;14.70
21832;DHT22;11078;49.872;6.188;2022-09-12T10:24:48;25.30;13.50
21832;DHT22;11078;49.872;6.188;2022-09-12T10:27:19;25.30;13.40
21832;DHT22;11078;49.872;6.188;2022-09-12T10:29:53;25.40;12.30
21832;DHT22;11078;49.872;6.188;2022-09-12T10:32:26;25.50;12.10
21832;DHT22;11078;49.872;6.188;2022-09-12T10:34:59;25.70;10.00
21832;DHT22;11078;49.872;6.188;2022-09-12T10:37:31;25.70;11.50
21832;DHT22;11078;49.872;6.188;2022-09-12T10:39:59;26.00;12.00
21832;DHT22;11078;49.872;6.188;2022-09-12T10:42:45;26.20;12.30
21832;DHT22;11078;49.872;6.188;2022-09-12T10:45:28;26.10;8.10
21832;DHT22;11078;49.872;6.188;2022-09-12T10:47:57;26.20;6.80
21832;DHT22;11078;49.872;6.188;2022-09-12T10:50:29;26.10;11.20
21832;DHT22;11078;49.872;6.188;2022-09-12T10:53:15;26.20;10.70
21832;DHT22;11078;49.872;6.188;2022-09-12T11:01:39;26.60;7.10
21832;DHT22;11078;49.872;6.188;2022-09-12T11:13:23;27.00;5.30
21832;DHT22;11078;49.872;6.188;2022-09-12T11:16:20;27.00;3.40
21832;DHT22;11078;49.872;6.188;2022-09-12T11:19:05;27.00;5.30
21832;DHT22;11078;49.872;6.188;2022-09-12T11:21:58;27.00;6.30
21832;DHT22;11078;49.872;6.188;2022-09-12T11:27:46;27.20;4.40
21832;DHT22;11078;49.872;6.188;2022-09-12T11:30:12;27.20;3.80
21832;DHT22;11078;49.872;6.188;2022-09-12T11:32:59;27.10;7.60
21832;DHT22;11078;49.872;6.188;2022-09-12T11:35:32;27.00;2.20
21832;DHT22;11078;49.872;6.188;2022-09-12T11:38:15;27.00;8.10
21832;DHT22;11078;49.872;6.188;2022-09-12T11:40:49;27.10;4.00
21832;DHT22;11078;49.872;6.188;2022-09-12T11:43:42;27.10;6.30
21832;DHT22;11078;49.872;6.188;2022-09-12T11:46:28;27.20;1.00
21832;DHT22;11078;49.872;6.188;2022-09-12T11:49:18;27.30;3.80
21832;DHT22;11078;49.872;6.188;2022-09-12T11:57:42;27.60;3.00
21832;DHT22;11078;49.872;6.188;2022-09-12T12:00:27;27.50;3.40
21832;DHT22;11078;49.872;6.188;2022-09-12T12:03:15;27.60;1.30
21832;DHT22;11078;49.872;6.188;2022-09-12T12:06:02;27.70;1.90
21832;DHT22;11078;49.872;6.188;2022-09-12T12:08:33;27.80;1.00
21832;DHT22;11078;49.872;6.188;2022-09-12T12:11:03;27.80;4.40
21832;DHT22;11078;49.872;6.188;2022-09-12T12:13:33;27.90;4.20
21832;DHT22;11078;49.872;6.188;2022-09-12T12:16:21;27.90;4.10
21832;DHT22;11078;49.872;6.188;2022-09-12T12:18:59;27.80;1.00
21832;DHT22;11078;49.872;6.188;2022-09-12T12:21:35;27.60;1.30
21832;DHT22;11078;49.872;6.188;2022-09-12T12:24:13;27.50;1.90
21832;DHT22;11078;49.872;6.188;2022-09-12T12:26:53;27.50;1.00
21832;DHT22;11078;49.872;6.188;2022-09-12T12:29:39;27.50;3.20
21832;DHT22;11078;49.872;6.188;2022-09-12T12:32:22;27.50;1.10
21832;DHT22;11078;49.872;6.188;2022-09-12T12:34:48;27.60;1.00
21832;DHT22;11078;49.872;6.188;2022-09-12T12:37:45;27.60;4.30
21832;DHT22;11078;49.872;6.188;2022-09-12T12:40:23;27.70;2.10
21832;DHT22;11078;49.872;6.188;2022-09-12T12:43:02;27.70;2.00
21832;DHT22;11078;49.872;6.188;2022-09-12T12:45:46;27.70;1.40
21832;DHT22;11078;49.872;6.188;2022-09-12T12:48:16;27.60;1.00
21832;DHT22;11078;49.872;6.188;2022-09-12T12:50:42;27.60;3.10
21832;DHT22;11078;49.872;6.188;2022-09-12T12:53:25;27.70;4.50
21832;DHT22;11078;49.872;6.188;2022-09-12T12:55:54;27.70;2.00
21832;DHT22;11078;49.872;6.188;2022-09-12T12:58:38;27.80;3.00
21832;DHT22;11078;49.872;6.188;2022-09-12T13:01:15;27.80;1.00
21832;DHT22;11078;49.872;6.188;2022-09-12T13:03:45;27.80;1.00
21832;DHT22;11078;49.872;6.188;2022-09-12T13:06:30;27.80;2.90
21832;DHT22;11078;49.872;6.188;2022-09-12T13:09:01;27.90;1.00
21832;DHT22;11078;49.872;6.188;2022-09-12T13:11:32;27.80;1.10
21832;DHT22;11078;49.872;6.188;2022-09-12T13:14:02;27.70;1.50
21832;DHT22;11078;49.872;6.188;2022-09-12T13:16:33;27.60;1.00
21832;DHT22;11078;49.872;6.188;2022-09-12T13:19:10;27.60;1.50
21832;DHT22;11078;49.872;6.188;2022-09-12T13:21:37;27.60;1.70
21832;DHT22;11078;49.872;6.188;2022-09-12T13:24:11;27.70;3.30
21832;DHT22;11078;49.872;6.188;2022-09-12T13:26:43;27.80;1.90
21832;DHT22;11078;49.872;6.188;2022-09-12T13:29:16;27.80;1.10
21832;DHT22;11078;49.872;6.188;2022-09-12T13:31:45;27.60;1.00
21832;DHT22;11078;49.872;6.188;2022-09-12T13:34:18;27.60;1.40
21832;DHT22;11078;49.872;6.188;2022-09-12T13:37:10;27.60;1.10
21832;DHT22;11078;49.872;6.188;2022-09-12T13:39:49;27.60;1.00
21832;DHT22;11078;49.872;6.188;2022-09-12T13:45:19;27.90;1.00
21832;DHT22;11078;49.872;6.188;2022-09-12T13:47:49;27.90;1.00
21832;DHT22;11078;49.872;6.188;2022-09-12T13:50:20;28.00;1.20
21832;DHT22;11078;49.872;6.188;2022-09-12T13:52:55;28.00;1.00
21832;DHT22;11078;49.872;6.188;2022-09-12T13:55:34;27.90;1.00
21832;DHT22;11078;49.872;6.188;2022-09-12T13:58:03;27.90;1.00
21832;DHT22;11078;49.872;6.188;2022-09-12T14:00:31;27.80;1.00
21832;DHT22;11078;49.872;6.188;2022-09-12T14:02:59;27.80;1.30
21832;DHT22;11078;49.872;6.188;2022-09-12T14:05:42;27.80;1.00
21832;DHT22;11078;49.872;6.188;2022-09-12T14:08:11;27.70;1.10
21832;DHT22;11078;49.872;6.188;2022-09-12T14:10:41;27.60;1.00
21832;DHT22;11078;49.872;6.188;2022-09-12T14:13:19;27.50;1.80
21832;DHT22;11078;49.872;6.188;2022-09-12T14:15:49;27.50;1.00
21832;DHT22;11078;49.872;6.188;2022-09-12T14:18:29;27.50;1.10
21832;DHT22;11078;49.872;6.188;2022-09-12T14:21:31;27.50;1.00
21832;DHT22;11078;49.872;6.188;2022-09-12T14:23:59;27.50;1.00
21832;DHT22;11078;49.872;6.188;2022-09-12T14:26:27;27.50;1.00
21832;DHT22;11078;49.872;6.188;2022-09-12T14:28:57;27.50;1.00
21832;DHT22;11078;49.872;6.188;2022-09-12T14:31:30;27.50;1.00
21832;DHT22;11078;49.872;6.188;2022-09-12T14:34:20;27.50;1.00
21832;DHT22;11078;49.872;6.188;2022-09-12T14:36:49;27.50;1.00
21832;DHT22;11078;49.872;6.188;2022-09-12T14:39:23;27.50;1.00
21832;DHT22;11078;49.872;6.188;2022-09-12T14:41:58;27.60;1.00
21832;DHT22;11078;49.872;6.188;2022-09-12T14:44:27;27.60;1.00
21832;DHT22;11078;49.872;6.188;2022-09-12T14:46:58;27.60;1.00
21832;DHT22;11078;49.872;6.188;2022-09-12T14:49:33;27.60;1.00
21832;DHT22;11078;49.872;6.188;2022-09-12T14:52:03;27.60;1.00
21832;DHT22;11078;49.872;6.188;2022-09-12T14:54:35;27.60;1.00
21832;DHT22;11078;49.872;6.188;2022-09-12T14:57:06;27.60;1.00
21832;DHT22;11078;49.872;6.188;2022-09-12T14:59:42;27.60;1.50
21832;DHT22;11078;49.872;6.188;2022-09-12T15:02:24;27.60;1.90
21832;DHT22;11078;49.872;6.188;2022-09-12T15:05:13;27.60;1.00
21832;DHT22;11078;49.872;6.188;2022-09-12T15:07:51;27.60;1.00
21832;DHT22;11078;49.872;6.188;2022-09-12T15:10:25;27.60;1.00
21832;DHT22;11078;49.872;6.188;2022-09-12T15:13:13;27.70;1.40
21832;DHT22;11078;49.872;6.188;2022-09-12T15:15:41;27.70;1.00
21832;DHT22;11078;49.872;6.188;2022-09-12T15:18:07;27.80;1.80
21832;DHT22;11078;49.872;6.188;2022-09-12T15:20:37;27.80;2.00
21832;DHT22;11078;49.872;6.188;2022-09-12T15:23:05;27.70;1.00
21832;DHT22;11078;49.872;6.188;2022-09-12T15:25:32;27.60;1.30
21832;DHT22;11078;49.872;6.188;2022-09-12T15:27:58;27.60;1.60
21832;DHT22;11078;49.872;6.188;2022-09-12T15:30:25;27.60;1.00
21832;DHT22;11078;49.872;6.188;2022-09-12T15:32:51;27.60;1.50
21832;DHT22;11078;49.872;6.188;2022-09-12T15:35:21;27.60;1.50
21832;DHT22;11078;49.872;6.188;2022-09-12T15:37:48;27.60;1.00
21832;DHT22;11078;49.872;6.188;2022-09-12T15:40:15;27.50;1.90
21832;DHT22;11078;49.872;6.188;2022-09-12T15:42:41;27.50;1.30
21832;DHT22;11078;49.872;6.188;2022-09-12T15:45:16;27.40;1.90
21832;DHT22;11078;49.872;6.188;2022-09-12T15:47:43;27.30;1.00
21832;DHT22;11078;49.872;6.188;2022-09-12T15:50:09;27.20;1.30
21832;DHT22;11078;49.872;6.188;2022-09-12T15:52:35;27.00;2.10
21832;DHT22;11078;49.872;6.188;2022-09-12T15:55:02;26.90;1.80
21832;DHT22;11078;49.872;6.188;2022-09-12T15:57:29;26.70;2.20
21832;DHT22;11078;49.872;6.188;2022-09-12T15:59:55;26.60;1.50
21832;DHT22;11078;49.872;6.188;2022-09-12T16:02:21;26.60;2.00
21832;DHT22;11078;49.872;6.188;2022-09-12T16:04:47;26.50;2.40
21832;DHT22;11078;49.872;6.188;2022-09-12T16:07:13;26.30;2.00
21832;DHT22;11078;49.872;6.188;2022-09-12T16:09:39;26.20;2.40
21832;DHT22;11078;49.872;6.188;2022-09-12T16:12:05;26.10;2.70
21832;DHT22;11078;49.872;6.188;2022-09-12T16:14:31;26.00;3.90
21832;DHT22;11078;49.872;6.188;2022-09-12T16:16:57;25.80;3.70
21832;DHT22;11078;49.872;6.188;2022-09-12T16:19:23;25.70;3.60
21832;DHT22;11078;49.872;6.188;2022-09-12T16:21:50;25.60;3.80
21832;DHT22;11078;49.872;6.188;2022-09-12T16:24:16;25.40;4.00
21832;DHT22;11078;49.872;6.188;2022-09-12T16:26:42;25.40;4.60
21832;DHT22;11078;49.872;6.188;2022-09-12T16:29:11;25.20;5.70
21832;DHT22;11078;49.872;6.188;2022-09-12T16:31:37;25.10;5.40
21832;DHT22;11078;49.872;6.188;2022-09-12T16:34:04;25.00;5.70
21832;DHT22;11078;49.872;6.188;2022-09-12T16:36:30;24.90;6.10
21832;DHT22;11078;49.872;6.188;2022-09-12T16:38:56;24.80;6.70
21832;DHT22;11078;49.872;6.188;2022-09-12T16:41:23;24.70;6.30
21832;DHT22;11078;49.872;6.188;2022-09-12T16:43:51;24.60;7.60
21832;DHT22;11078;49.872;6.188;2022-09-12T16:46:19;24.40;6.20
21832;DHT22;11078;49.872;6.188;2022-09-12T16:48:49;24.40;6.80
21832;DHT22;11078;49.872;6.188;2022-09-12T16:51:18;24.30;7.70
21832;DHT22;11078;49.872;6.188;2022-09-12T16:53:45;24.10;7.40
21832;DHT22;11078;49.872;6.188;2022-09-12T16:56:11;24.10;7.40
21832;DHT22;11078;49.872;6.188;2022-09-12T16:58:39;24.00;7.70
21832;DHT22;11078;49.872;6.188;2022-09-12T17:01:08;23.90;8.30
21832;DHT22;11078;49.872;6.188;2022-09-12T17:03:35;23.70;8.00
21832;DHT22;11078;49.872;6.188;2022-09-12T17:06:04;23.60;8.00
21832;DHT22;11078;49.872;6.188;2022-09-12T17:08:33;23.50;8.80